Time;durP1;ratioP1;P1;durP2;ratioP2;P2;SDS_P1;SDS_P2;PMS_P1;PMS_P2;Temp;Humidity;BMP_temperature;BMP_pressure;BME280_temperature;BME280_humidity;BME280_pressure;Samples;Min_cycle;Max_cycle;Signal;HPM_P1;HPM_P2
2022/01/03 00:00:38;;;;;;;8.35;3.63;;;;;;;;;;5100771;28;20056;-72
2022/01/03 00:03:07;;;;;;;13.25;3.55;;;;;;;;;;5101295;28;20020;-72
2022/01/03 00:05:32;;;;;;;7.80;3.55;;;;;;;;;;5101429;28;20068;-72
2022/01/03 00:07:58;;;;;;;10.05;3.05;;;;;;;;;;5100683;28;20016;-72
2022/01/03 00:10:23;;;;;;;11.02;3.95;;;;;;;;;;5101118;28;20036;-72
2022/01/03 00:12:49;;;;;;;17.23;4.68;;;;;;;;;;5101410;28;20016;-73
2022/01/03 00:15:17;;;;;;;10.57;3.83;;;;;;;;;;5101026;28;20024;-73
2022/01/03 00:17:43;;;;;;;10.80;4.30;;;;;;;;;;5100929;28;20015;-72
2022/01/03 00:20:10;;;;;;;15.13;4.40;;;;;;;;;;5101115;28;20062;-72
2022/01/03 00:22:40;;;;;;;15.98;4.47;;;;;;;;;;5100942;28;20016;-72
2022/01/03 00:25:16;;;;;;;11.27;3.53;;;;;;;;;;5101168;28;20012;-72
2022/01/03 00:28:05;;;;;;;9.38;4.03;;;;;;;;;;5100617;28;20012;-72
2022/01/03 00:30:34;;;;;;;11.27;3.80;;;;;;;;;;5100843;28;20015;-72
2022/01/03 00:33:02;;;;;;;7.93;3.83;;;;;;;;;;5101073;28;20058;-72
2022/01/03 00:35:28;;;;;;;10.05;3.80;;;;;;;;;;5101098;28;20008;-72
2022/01/03 00:37:57;;;;;;;9.50;3.47;;;;;;;;;;5100697;28;20024;-72
2022/01/03 00:40:24;;;;;;;8.27;3.25;;;;;;;;;;5100192;28;20016;-72
2022/01/03 00:42:50;;;;;;;10.82;3.70;;;;;;;;;;5100487;28;20009;-72
2022/01/03 00:45:15;;;;;;;10.73;3.60;;;;;;;;;;5100528;28;20020;-73
2022/01/03 00:47:40;;;;;;;6.95;3.28;;;;;;;;;;5100158;28;20027;-72
2022/01/03 00:50:11;;;;;;;8.82;3.50;;;;;;;;;;5100215;28;20019;-72
2022/01/03 00:52:37;;;;;;;10.80;3.47;;;;;;;;;;5115739;28;20096;-72
2022/01/03 00:55:06;;;;;;;8.70;3.35;;;;;;;;;;5099853;28;20013;-72
2022/01/03 00:57:47;;;;;;;12.90;3.78;;;;;;;;;;5100105;28;20040;-72
2022/01/03 01:00:13;;;;;;;9.25;3.45;;;;;;;;;;5100300;28;20013;-72
2022/01/03 01:02:50;;;;;;;9.77;3.85;;;;;;;;;;5100302;28;20033;-72
2022/01/03 01:05:17;;;;;;;11.38;3.88;;;;;;;;;;5100449;28;20020;-72
2022/01/03 01:07:45;;;;;;;10.43;3.83;;;;;;;;;;5099310;28;20016;-72
2022/01/03 01:10:11;;;;;;;7.80;3.42;;;;;;;;;;5099765;28;20076;-72
2022/01/03 01:12:37;;;;;;;7.55;3.25;;;;;;;;;;5099958;28;20012;-72
2022/01/03 01:15:03;;;;;;;6.40;3.03;;;;;;;;;;5099961;28;20012;-72
2022/01/03 01:17:28;;;;;;;9.05;3.60;;;;;;;;;;5099750;28;20017;-72
2022/01/03 01:19:56;;;;;;;7.60;3.28;;;;;;;;;;5099728;28;20026;-72
2022/01/03 01:22:21;;;;;;;9.20;2.72;;;;;;;;;;5098840;28;20020;-72
2022/01/03 01:24:58;;;;;;;7.15;3.17;;;;;;;;;;5099850;28;20262;-72
2022/01/03 01:30:10;;;;;;;6.63;3.10;;;;;;;;;;5099459;28;20024;-72
2022/01/03 01:32:38;;;;;;;10.65;3.08;;;;;;;;;;5099860;28;20029;-72
2022/01/03 01:35:04;;;;;;;6.75;2.97;;;;;;;;;;5099334;28;20023;-72
2022/01/03 01:37:30;;;;;;;11.63;3.00;;;;;;;;;;5098929;28;20040;-72
2022/01/03 01:39:57;;;;;;;6.95;2.70;;;;;;;;;;5099257;28;20024;-72
2022/01/03 01:42:24;;;;;;;6.57;2.65;;;;;;;;;;5098837;28;20004;-72
2022/01/03 01:44:51;;;;;;;7.97;2.75;;;;;;;;;;5099359;28;20008;-72
2022/01/03 01:47:18;;;;;;;7.63;2.90;;;;;;;;;;5099359;28;20012;-72
2022/01/03 01:49:46;;;;;;;10.95;3.03;;;;;;;;;;5098682;28;20008;-72
2022/01/03 01:52:22;;;;;;;8.93;2.97;;;;;;;;;;5099161;28;20032;-72
2022/01/03 01:54:57;;;;;;;7.78;2.65;;;;;;;;;;5099090;28;20016;-72
2022/01/03 01:57:38;;;;;;;6.10;2.85;;;;;;;;;;5098934;28;20024;-72
2022/01/03 02:00:12;;;;;;;15.10;3.17;;;;;;;;;;5098924;28;20022;-72
2022/01/03 02:02:46;;;;;;;7.97;3.08;;;;;;;;;;5098410;28;20009;-72
2022/01/03 02:05:19;;;;;;;7.10;2.88;;;;;;;;;;5098172;28;20036;-72
2022/01/03 02:08:03;;;;;;;9.90;3.33;;;;;;;;;;5099273;28;20008;-73
2022/01/03 02:10:35;;;;;;;7.53;2.72;;;;;;;;;;5099294;28;20069;-72
2022/01/03 02:13:01;;;;;;;9.80;2.75;;;;;;;;;;5098161;28;20012;-72
2022/01/03 02:15:27;;;;;;;8.95;2.70;;;;;;;;;;5097952;28;20032;-73
2022/01/03 02:17:52;;;;;;;6.72;2.85;;;;;;;;;;5098801;28;20062;-72
2022/01/03 02:20:21;;;;;;;5.55;2.20;;;;;;;;;;5098089;28;20027;-72
2022/01/03 02:22:47;;;;;;;9.73;2.47;;;;;;;;;;5098697;28;20021;-72
2022/01/03 02:25:14;;;;;;;4.85;2.45;;;;;;;;;;5098177;28;20004;-72
2022/01/03 02:27:40;;;;;;;7.25;2.88;;;;;;;;;;5098454;28;20077;-72
2022/01/03 02:30:12;;;;;;;12.27;3.20;;;;;;;;;;5098328;28;20085;-72
2022/01/03 02:32:37;;;;;;;8.10;3.13;;;;;;;;;;5098219;28;20021;-72
2022/01/03 02:35:04;;;;;;;10.13;3.10;;;;;;;;;;5098154;28;20034;-72
2022/01/03 02:37:30;;;;;;;9.45;2.90;;;;;;;;;;5098184;28;20035;-72
2022/01/03 02:39:56;;;;;;;8.55;2.42;;;;;;;;;;5098177;28;20012;-72
2022/01/03 02:42:25;;;;;;;10.85;2.60;;;;;;;;;;5097832;28;20048;-72
2022/01/03 02:45:22;;;;;;;5.80;2.42;;;;;;;;;;5114165;28;20023;-72
2022/01/03 02:48:07;;;;;;;8.25;2.40;;;;;;;;;;5097745;28;20084;-72
2022/01/03 02:50:35;;;;;;;7.03;2.38;;;;;;;;;;5114369;28;20030;-73
2022/01/03 02:53:01;;;;;;;9.57;2.78;;;;;;;;;;5098425;28;20042;-72
2022/01/03 02:55:26;;;;;;;9.70;2.90;;;;;;;;;;5098077;28;20021;-72
2022/01/03 02:57:54;;;;;;;6.15;2.80;;;;;;;;;;5097939;28;20046;-72
2022/01/03 03:00:25;;;;;;;11.15;2.80;;;;;;;;;;5098105;28;20024;-72
2022/01/03 03:02:50;;;;;;;6.30;2.67;;;;;;;;;;5098196;28;20012;-72
2022/01/03 03:05:16;;;;;;;8.55;3.22;;;;;;;;;;5098274;28;20008;-72
2022/01/03 03:07:42;;;;;;;6.30;2.45;;;;;;;;;;5098174;28;20017;-72
2022/01/03 03:10:10;;;;;;;9.57;2.47;;;;;;;;;;5097834;28;20032;-72
2022/01/03 03:12:36;;;;;;;7.03;2.22;;;;;;;;;;5097812;28;20072;-72
2022/01/03 03:15:04;;;;;;;7.93;2.50;;;;;;;;;;5096893;28;20012;-72
2022/01/03 03:17:29;;;;;;;5.57;2.35;;;;;;;;;;5097960;28;20019;-72
2022/01/03 03:19:57;;;;;;;6.35;2.55;;;;;;;;;;5097950;28;20084;-72
2022/01/03 03:22:25;;;;;;;5.57;2.60;;;;;;;;;;5097840;28;20018;-72
2022/01/03 03:24:51;;;;;;;6.65;2.67;;;;;;;;;;5098238;28;20013;-72
2022/01/03 03:27:17;;;;;;;7.88;2.78;;;;;;;;;;5097565;28;20058;-72
2022/01/03 03:29:50;;;;;;;7.43;3.08;;;;;;;;;;5097113;28;20130;-72
2022/01/03 03:32:17;;;;;;;7.05;2.40;;;;;;;;;;5097333;28;20016;-72
2022/01/03 03:34:45;;;;;;;7.20;2.67;;;;;;;;;;5097738;28;20039;-72
2022/01/03 03:37:11;;;;;;;7.22;2.40;;;;;;;;;;5097764;28;20080;-72
2022/01/03 03:39:38;;;;;;;6.82;2.58;;;;;;;;;;5097946;28;20028;-72
2022/01/03 03:42:04;;;;;;;7.95;2.90;;;;;;;;;;5097421;28;20072;-72
2022/01/03 03:44:30;;;;;;;6.40;2.13;;;;;;;;;;5097441;28;20008;-72
2022/01/03 03:46:55;;;;;;;8.07;2.60;;;;;;;;;;5097466;28;20032;-72
2022/01/03 03:49:21;;;;;;;5.47;2.45;;;;;;;;;;5097312;28;20046;-72
2022/01/03 03:51:46;;;;;;;8.40;2.63;;;;;;;;;;5097879;28;20046;-72
2022/01/03 03:54:12;;;;;;;5.93;2.50;;;;;;;;;;5097648;28;20043;-72
2022/01/03 03:56:37;;;;;;;5.15;2.33;;;;;;;;;;5097879;28;20040;-72
2022/01/03 03:59:02;;;;;;;6.18;3.17;;;;;;;;;;5097110;28;20020;-72
2022/01/03 04:01:28;;;;;;;7.07;2.25;;;;;;;;;;5097398;28;20028;-72
2022/01/03 04:03:53;;;;;;;7.07;2.55;;;;;;;;;;5097116;28;20107;-72
2022/01/03 04:06:19;;;;;;;11.70;3.03;;;;;;;;;;5096909;28;20031;-72
2022/01/03 04:08:45;;;;;;;5.38;2.38;;;;;;;;;;5097526;28;20150;-72
2022/01/03 04:11:13;;;;;;;5.82;3.30;;;;;;;;;;5097198;28;20098;-73
2022/01/03 04:13:39;;;;;;;8.00;3.70;;;;;;;;;;5097245;28;20031;-72
2022/01/03 04:16:08;;;;;;;10.57;3.95;;;;;;;;;;5096667;28;20093;-72
2022/01/03 04:18:34;;;;;;;8.20;3.65;;;;;;;;;;5096942;28;20042;-72
2022/01/03 04:21:00;;;;;;;8.82;3.50;;;;;;;;;;5097297;28;20025;-72
2022/01/03 04:23:25;;;;;;;11.30;3.65;;;;;;;;;;5096682;28;20119;-72
2022/01/03 04:25:51;;;;;;;11.20;4.55;;;;;;;;;;5098083;28;20020;-72
2022/01/03 04:28:17;;;;;;;10.50;4.15;;;;;;;;;;5100644;28;20036;-72
2022/01/03 04:30:43;;;;;;;11.40;4.47;;;;;;;;;;5100676;28;20016;-72
2022/01/03 04:33:08;;;;;;;10.05;4.40;;;;;;;;;;5100698;28;20047;-72
2022/01/03 04:35:33;;;;;;;12.88;4.63;;;;;;;;;;5100452;28;20079;-72
2022/01/03 04:37:59;;;;;;;11.18;4.50;;;;;;;;;;5100412;28;20028;-72
2022/01/03 04:40:24;;;;;;;8.43;4.15;;;;;;;;;;5100704;28;20020;-72
2022/01/03 04:42:51;;;;;;;11.30;4.50;;;;;;;;;;5100425;28;20038;-72
2022/01/03 04:45:17;;;;;;;10.90;4.30;;;;;;;;;;5100658;28;20009;-72
2022/01/03 04:47:42;;;;;;;12.32;4.45;;;;;;;;;;5100455;28;20072;-72
2022/01/03 04:50:11;;;;;;;6.00;3.13;;;;;;;;;;5100828;28;20032;-72
2022/01/03 04:52:36;;;;;;;10.27;3.75;;;;;;;;;;5100886;28;20013;-72
2022/01/03 04:55:02;;;;;;;7.32;3.67;;;;;;;;;;5100379;28;20016;-72
2022/01/03 04:57:28;;;;;;;10.65;3.60;;;;;;;;;;5099671;28;20005;-72
2022/01/03 04:59:53;;;;;;;9.82;3.47;;;;;;;;;;5100459;28;20029;-72
2022/01/03 05:02:18;;;;;;;8.27;2.50;;;;;;;;;;5100498;28;20036;-72
2022/01/03 05:04:44;;;;;;;5.63;2.80;;;;;;;;;;5100098;28;20008;-72
2022/01/03 05:07:10;;;;;;;12.07;2.90;;;;;;;;;;5100265;28;20016;-72
2022/01/03 05:09:35;;;;;;;6.30;2.03;;;;;;;;;;5100273;28;20047;-72
2022/01/03 05:12:02;;;;;;;4.43;2.25;;;;;;;;;;5099923;28;20008;-72
2022/01/03 05:14:27;;;;;;;5.47;2.08;;;;;;;;;;5099763;28;20020;-72
2022/01/03 05:16:53;;;;;;;5.80;1.80;;;;;;;;;;5100060;28;20040;-72
2022/01/03 05:19:19;;;;;;;5.45;1.95;;;;;;;;;;5099783;28;20050;-72
2022/01/03 05:21:46;;;;;;;6.45;2.15;;;;;;;;;;5099972;28;20024;-72
2022/01/03 05:24:13;;;;;;;4.85;1.80;;;;;;;;;;5099580;28;20005;-72
2022/01/03 05:26:38;;;;;;;9.18;2.30;;;;;;;;;;5099817;28;20040;-72
2022/01/03 05:29:04;;;;;;;3.53;2.03;;;;;;;;;;5099529;28;20012;-72
2022/01/03 05:31:29;;;;;;;3.63;1.52;;;;;;;;;;5099569;28;20020;-72
2022/01/03 05:33:55;;;;;;;6.88;1.70;;;;;;;;;;5099490;28;20024;-72
2022/01/03 05:36:21;;;;;;;3.65;1.33;;;;;;;;;;5099624;28;20054;-72
2022/01/03 05:38:47;;;;;;;6.03;1.42;;;;;;;;;;5098604;28;20020;-72
2022/01/03 05:41:12;;;;;;;3.95;1.40;;;;;;;;;;5098814;28;20013;-72
2022/01/03 05:43:38;;;;;;;4.88;1.38;;;;;;;;;;5098983;28;20091;-72
2022/01/03 05:46:06;;;;;;;3.92;1.40;;;;;;;;;;5098214;28;20016;-72
2022/01/03 05:48:32;;;;;;;3.58;1.30;;;;;;;;;;5099127;28;20012;-72
2022/01/03 05:50:57;;;;;;;4.30;1.08;;;;;;;;;;5098665;28;20013;-72
2022/01/03 05:53:23;;;;;;;3.63;1.20;;;;;;;;;;5099076;28;20036;-72
2022/01/03 05:55:49;;;;;;;5.88;1.13;;;;;;;;;;5099041;28;20008;-72
2022/01/03 05:58:15;;;;;;;2.05;1.20;;;;;;;;;;5098929;28;20008;-72
2022/01/03 06:00:41;;;;;;;4.57;1.10;;;;;;;;;;5099219;28;20024;-72
2022/01/03 06:03:06;;;;;;;2.72;1.02;;;;;;;;;;5099224;28;20068;-71
2022/01/03 06:07:58;;;;;;;5.75;1.15;;;;;;;;;;5098976;28;20047;-72
2022/01/03 06:10:24;;;;;;;2.47;1.08;;;;;;;;;;5098185;28;20082;-72
2022/01/03 06:12:49;;;;;;;4.63;1.17;;;;;;;;;;5098462;28;20030;-72
2022/01/03 06:15:15;;;;;;;4.00;1.30;;;;;;;;;;5098638;28;20020;-72
2022/01/03 06:17:42;;;;;;;5.35;1.40;;;;;;;;;;5098771;28;20017;-72
2022/01/03 06:20:08;;;;;;;5.38;1.58;;;;;;;;;;5098358;28;20033;-72
2022/01/03 06:22:34;;;;;;;3.35;1.20;;;;;;;;;;5098675;28;20051;-72
2022/01/03 06:24:59;;;;;;;6.43;1.30;;;;;;;;;;5098706;28;20004;-72
2022/01/03 06:27:24;;;;;;;7.13;1.20;;;;;;;;;;5098593;28;20039;-72
2022/01/03 06:29:50;;;;;;;3.55;1.30;;;;;;;;;;5098316;28;20023;-72
2022/01/03 06:32:15;;;;;;;2.53;1.35;;;;;;;;;;5098268;28;20058;-72
2022/01/03 06:34:40;;;;;;;4.07;1.35;;;;;;;;;;5114433;28;20016;-71
2022/01/03 06:37:06;;;;;;;4.22;1.40;;;;;;;;;;5098200;28;20027;-72
2022/01/03 06:39:31;;;;;;;3.20;1.17;;;;;;;;;;5097349;28;20005;-72
2022/01/03 06:41:57;;;;;;;2.83;1.60;;;;;;;;;;5098034;28;20076;-72
2022/01/03 06:44:22;;;;;;;2.58;1.30;;;;;;;;;;5098552;28;20008;-72
2022/01/03 06:46:48;;;;;;;3.92;1.50;;;;;;;;;;5097784;28;20021;-72
2022/01/03 06:49:14;;;;;;;6.78;2.45;;;;;;;;;;5098441;28;20008;-72
2022/01/03 06:51:39;;;;;;;3.60;1.60;;;;;;;;;;5098371;28;20055;-72
2022/01/03 06:54:06;;;;;;;4.55;1.83;;;;;;;;;;5097573;28;20022;-72
2022/01/03 06:56:32;;;;;;;4.05;1.77;;;;;;;;;;5098094;28;20039;-72
2022/01/03 06:58:58;;;;;;;5.93;1.70;;;;;;;;;;5097551;28;20020;-72
2022/01/03 07:01:23;;;;;;;6.57;2.08;;;;;;;;;;5097964;28;20012;-72
2022/01/03 07:03:49;;;;;;;4.57;2.03;;;;;;;;;;5098358;28;20020;-72
2022/01/03 07:06:14;;;;;;;4.28;1.90;;;;;;;;;;5097880;28;20019;-72
2022/01/03 07:08:40;;;;;;;5.03;1.77;;;;;;;;;;5098513;28;20080;-72
2022/01/03 07:11:05;;;;;;;6.30;1.83;;;;;;;;;;5097698;28;20031;-72
2022/01/03 07:13:40;;;;;;;5.28;1.73;;;;;;;;;;5097536;28;20012;-71
2022/01/03 07:18:56;;;;;;;;;;;;;;;;;;5098306;28;20078;-72
2022/01/03 07:21:25;;;;;;;1.85;1.30;;;;;;;;;;5097337;28;19911;-72
2022/01/03 07:23:51;;;;;;;3.88;1.33;;;;;;;;;;5096284;28;20078;-71
2022/01/03 07:26:16;;;;;;;7.00;2.17;;;;;;;;;;5113507;28;20142;-72
2022/01/03 07:28:42;;;;;;;3.38;1.30;;;;;;;;;;5097689;28;20012;-72
2022/01/03 07:31:08;;;;;;;4.65;1.65;;;;;;;;;;5097759;28;20017;-72
2022/01/03 07:33:33;;;;;;;5.25;1.85;;;;;;;;;;5098000;28;20005;-72
2022/01/03 07:35:59;;;;;;;3.15;1.15;;;;;;;;;;5097976;28;20027;-72
2022/01/03 07:38:24;;;;;;;5.68;1.63;;;;;;;;;;5097421;28;20051;-72
2022/01/03 07:40:49;;;;;;;5.15;1.85;;;;;;;;;;5097778;28;20008;-72
2022/01/03 07:43:15;;;;;;;5.88;1.60;;;;;;;;;;5097788;28;20036;-72
2022/01/03 07:45:40;;;;;;;2.83;1.73;;;;;;;;;;5097820;28;20024;-72
2022/01/03 07:48:06;;;;;;;1.88;1.27;;;;;;;;;;5097668;28;20019;-72
2022/01/03 07:50:31;;;;;;;7.53;2.03;;;;;;;;;;5097930;28;20020;-72
2022/01/03 07:53:00;;;;;;;4.57;1.50;;;;;;;;;;5097654;28;20043;-72
2022/01/03 07:55:26;;;;;;;6.18;1.60;;;;;;;;;;5097460;28;20040;-72
2022/01/03 07:57:52;;;;;;;5.13;1.70;;;;;;;;;;5097476;28;20031;-72
2022/01/03 08:00:18;;;;;;;2.67;1.30;;;;;;;;;;5097453;28;20012;-72
2022/01/03 08:02:44;;;;;;;6.25;1.60;;;;;;;;;;5101190;28;20043;-72
2022/01/03 08:05:13;;;;;;;7.55;2.00;;;;;;;;;;5100713;28;20032;-72
2022/01/03 08:07:39;;;;;;;7.28;1.80;;;;;;;;;;5101461;28;20016;-72
2022/01/03 08:10:06;;;;;;;6.18;1.80;;;;;;;;;;5101585;28;20032;-72
2022/01/03 08:12:32;;;;;;;4.28;1.95;;;;;;;;;;5101124;28;20031;-72
2022/01/03 08:14:58;;;;;;;6.95;1.88;;;;;;;;;;5117605;28;20008;-72
2022/01/03 08:17:24;;;;;;;4.80;1.75;;;;;;;;;;5101352;28;20077;-72
2022/01/03 08:19:49;;;;;;;5.13;1.98;;;;;;;;;;5100771;28;20026;-71
2022/01/03 08:22:15;;;;;;;6.38;1.67;;;;;;;;;;5101244;28;20040;-72
2022/01/03 08:24:40;;;;;;;3.25;1.63;;;;;;;;;;5101468;28;20037;-72
2022/01/03 08:27:06;;;;;;;8.95;1.92;;;;;;;;;;5100551;28;20024;-72
2022/01/03 08:29:31;;;;;;;13.27;2.05;;;;;;;;;;5101315;28;20013;-72
2022/01/03 08:31:57;;;;;;;4.78;1.75;;;;;;;;;;5101126;28;20016;-72
2022/01/03 08:34:22;;;;;;;9.15;2.15;;;;;;;;;;5101081;28;20021;-72
2022/01/03 08:36:48;;;;;;;3.55;1.70;;;;;;;;;;5100362;28;20035;-73
2022/01/03 08:39:13;;;;;;;5.18;1.70;;;;;;;;;;5101103;28;20012;-72
2022/01/03 08:41:39;;;;;;;7.72;1.70;;;;;;;;;;5101134;28;20023;-72
2022/01/03 08:44:05;;;;;;;6.05;1.50;;;;;;;;;;5101052;28;20024;-72
2022/01/03 08:46:31;;;;;;;7.90;1.60;;;;;;;;;;5100922;28;20044;-73
2022/01/03 08:48:56;;;;;;;6.43;1.73;;;;;;;;;;5100267;28;20042;-72
2022/01/03 08:51:22;;;;;;;3.63;1.38;;;;;;;;;;5100663;28;20018;-72
2022/01/03 08:53:47;;;;;;;5.07;1.33;;;;;;;;;;5100292;28;20012;-72
2022/01/03 08:56:13;;;;;;;4.95;1.33;;;;;;;;;;5100821;28;20012;-72
2022/01/03 08:58:38;;;;;;;5.75;1.52;;;;;;;;;;5100160;28;20076;-72
2022/01/03 09:01:04;;;;;;;8.80;1.52;;;;;;;;;;5100211;28;20076;-72
2022/01/03 09:03:29;;;;;;;9.48;1.50;;;;;;;;;;5100366;28;20008;-72
2022/01/03 09:05:56;;;;;;;6.00;1.60;;;;;;;;;;5100205;28;20023;-72
2022/01/03 09:08:23;;;;;;;7.68;1.30;;;;;;;;;;5100230;28;20013;-72
2022/01/03 09:10:50;;;;;;;4.82;1.33;;;;;;;;;;5099949;28;20016;-72
2022/01/03 09:13:16;;;;;;;3.70;1.45;;;;;;;;;;5098843;28;20024;-72
2022/01/03 09:15:46;;;;;;;10.77;1.98;;;;;;;;;;5100238;28;20027;-72
2022/01/03 09:18:16;;;;;;;7.75;1.58;;;;;;;;;;5100217;28;20029;-72
2022/01/03 09:20:41;;;;;;;4.68;1.27;;;;;;;;;;5099417;28;20008;-72
2022/01/03 09:23:12;;;;;;;7.38;1.55;;;;;;;;;;5099812;28;20019;-72
2022/01/03 09:30:51;;;;;;;10.82;1.58;;;;;;;;;;5099690;28;20008;-72
2022/01/03 09:33:17;;;;;;;7.95;1.20;;;;;;;;;;5099353;28;20016;-72
2022/01/03 09:35:43;;;;;;;11.27;1.70;;;;;;;;;;5099750;28;20021;-72
2022/01/03 09:38:10;;;;;;;8.02;1.13;;;;;;;;;;5098882;28;20036;-72
2022/01/03 09:40:37;;;;;;;9.32;1.88;;;;;;;;;;5099405;28;20259;-72
2022/01/03 09:43:03;;;;;;;6.93;1.50;;;;;;;;;;5099514;28;20027;-72
2022/01/03 09:45:32;;;;;;;5.25;1.30;;;;;;;;;;5099245;28;20012;-72
2022/01/03 09:47:59;;;;;;;13.65;1.42;;;;;;;;;;5099417;28;20035;-72
2022/01/03 09:50:25;;;;;;;5.10;1.42;;;;;;;;;;5099668;28;20055;-72
2022/01/03 09:52:51;;;;;;;5.32;1.52;;;;;;;;;;5099639;28;20153;-72
2022/01/03 09:55:19;;;;;;;9.18;1.67;;;;;;;;;;5099283;28;20008;-72
2022/01/03 09:57:46;;;;;;;8.15;1.88;;;;;;;;;;5099068;28;20096;-72
2022/01/03 10:00:14;;;;;;;6.57;1.38;;;;;;;;;;5098842;28;20091;-72
2022/01/03 10:02:39;;;;;;;10.50;1.83;;;;;;;;;;5099127;28;20024;-72
2022/01/03 10:05:06;;;;;;;4.68;1.27;;;;;;;;;;5115738;28;20042;-72
2022/01/03 10:07:33;;;;;;;9.77;1.73;;;;;;;;;;5099212;28;20055;-72
2022/01/03 10:09:59;;;;;;;11.23;1.88;;;;;;;;;;5099074;28;20028;-72
2022/01/03 10:12:25;;;;;;;3.53;0.85;;;;;;;;;;5098731;28;20031;-72
2022/01/03 10:14:50;;;;;;;8.02;1.40;;;;;;;;;;5098661;28;20012;-72
2022/01/03 10:17:15;;;;;;;10.40;1.30;;;;;;;;;;5098435;28;20031;-72
2022/01/03 10:19:56;;;;;;;7.57;1.42;;;;;;;;;;5098753;28;20016;-72
2022/01/03 10:22:27;;;;;;;12.38;1.30;;;;;;;;;;5098940;28;20027;-72
2022/01/03 10:24:53;;;;;;;7.43;1.40;;;;;;;;;;5097886;28;20026;-72
2022/01/03 10:27:22;;;;;;;8.93;1.63;;;;;;;;;;5097757;28;20021;-72
2022/01/03 10:29:58;;;;;;;5.93;0.95;;;;;;;;;;5098419;28;20068;-72
2022/01/03 10:32:30;;;;;;;6.90;1.58;;;;;;;;;;5098452;28;20020;-72
2022/01/03 10:34:57;;;;;;;8.15;1.08;;;;;;;;;;5098778;28;20025;-72
2022/01/03 10:37:36;;;;;;;9.13;1.50;;;;;;;;;;5098128;28;20020;-71
2022/01/03 10:40:15;;;;;;;9.20;1.40;;;;;;;;;;5098073;28;20250;-72
2022/01/03 10:42:41;;;;;;;9.48;1.67;;;;;;;;;;5098780;28;20119;-72
2022/01/03 10:45:07;;;;;;;8.32;2.30;;;;;;;;;;5098835;28;20013;-72
2022/01/03 10:47:34;;;;;;;11.82;1.90;;;;;;;;;;5097955;28;20042;-72
2022/01/03 10:50:12;;;;;;;5.55;1.30;;;;;;;;;;5098305;28;20016;-72
2022/01/03 10:52:42;;;;;;;4.90;1.60;;;;;;;;;;5098491;28;20016;-72
2022/01/03 10:55:09;;;;;;;8.07;1.60;;;;;;;;;;5098448;28;20064;-71
2022/01/03 10:57:58;;;;;;;7.25;1.10;;;;;;;;;;5098063;28;20024;-72
2022/01/03 11:00:29;;;;;;;11.15;1.55;;;;;;;;;;5098159;28;20072;-71
2022/01/03 11:03:11;;;;;;;6.90;1.20;;;;;;;;;;5098474;28;20020;-71
2022/01/03 11:05:44;;;;;;;6.07;1.10;;;;;;;;;;5097738;28;20039;-71
2022/01/03 11:10:44;;;;;;;6.47;1.00;;;;;;;;;;5098165;28;20028;-72
2022/01/03 11:13:14;;;;;;;10.25;1.55;;;;;;;;;;5098019;28;20020;-71
2022/01/03 11:15:50;;;;;;;4.85;1.25;;;;;;;;;;5098308;28;20137;-71
2022/01/03 11:18:18;;;;;;;5.57;1.38;;;;;;;;;;5098219;28;20019;-71
2022/01/03 11:20:48;;;;;;;6.30;1.17;;;;;;;;;;5098218;28;20012;-71
2022/01/03 11:23:22;;;;;;;7.00;1.48;;;;;;;;;;5098380;28;20016;-71
2022/01/03 11:25:49;;;;;;;13.82;2.25;;;;;;;;;;5098179;28;20013;-71
2022/01/03 11:28:15;;;;;;;7.65;1.27;;;;;;;;;;5098202;28;20038;-72
2022/01/03 11:30:43;;;;;;;6.18;1.30;;;;;;;;;;5097927;28;20039;-72
2022/01/03 11:33:10;;;;;;;7.68;1.20;;;;;;;;;;5097874;28;20020;-72
2022/01/03 11:35:36;;;;;;;9.57;1.33;;;;;;;;;;5099131;28;20017;-72
2022/01/03 11:38:06;;;;;;;9.57;1.35;;;;;;;;;;5100728;28;20336;-72
2022/01/03 11:40:31;;;;;;;2.08;0.65;;;;;;;;;;5101249;28;20017;-72
2022/01/03 11:42:58;;;;;;;4.90;1.55;;;;;;;;;;5101433;28;20044;-72
2022/01/03 11:45:23;;;;;;;2.72;1.08;;;;;;;;;;5101520;28;20016;-72
2022/01/03 11:47:49;;;;;;;4.82;1.08;;;;;;;;;;5102032;28;20020;-72
2022/01/03 11:50:15;;;;;;;6.00;1.13;;;;;;;;;;5117840;28;20012;-72
2022/01/03 11:52:43;;;;;;;8.02;1.23;;;;;;;;;;5101917;28;20027;-72
2022/01/03 11:55:10;;;;;;;7.47;1.20;;;;;;;;;;5101771;28;20072;-72
2022/01/03 12:03:50;;;;;;;3.53;0.95;;;;;;;;;;5101439;28;20035;-72
2022/01/03 12:06:24;;;;;;;7.88;1.23;;;;;;;;;;5101361;28;20021;-72
2022/01/03 12:08:55;;;;;;;5.25;1.13;;;;;;;;;;5101361;28;20061;-72
2022/01/03 12:11:28;;;;;;;6.57;1.20;;;;;;;;;;5101416;28;20013;-72
2022/01/03 12:14:10;;;;;;;6.13;1.13;;;;;;;;;;5101287;28;20016;-72
2022/01/03 12:16:42;;;;;;;6.55;1.70;;;;;;;;;;5101345;28;20017;-73
2022/01/03 12:19:10;;;;;;;6.47;1.30;;;;;;;;;;5101296;28;20044;-73
2022/01/03 12:21:48;;;;;;;4.10;1.33;;;;;;;;;;5101499;28;20044;-73
2022/01/03 12:24:26;;;;;;;7.03;1.20;;;;;;;;;;5101276;28;20042;-73
2022/01/03 12:27:10;;;;;;;7.03;1.17;;;;;;;;;;5100460;28;20039;-73
2022/01/03 12:29:54;;;;;;;8.23;1.45;;;;;;;;;;5100862;28;20016;-73
2022/01/03 12:33:06;;;;;;;5.35;1.38;;;;;;;;;;5100722;28;20036;-73
2022/01/03 12:35:36;;;;;;;6.88;1.30;;;;;;;;;;5079689;28;20065;-73
2022/01/03 12:38:04;;;;;;;7.45;1.42;;;;;;;;;;5098679;28;20084;-72
2022/01/03 12:40:36;;;;;;;6.38;1.15;;;;;;;;;;5099827;28;20026;-72
2022/01/03 12:43:03;;;;;;;6.65;1.42;;;;;;;;;;5100324;28;20024;-73
2022/01/03 12:45:42;;;;;;;6.60;1.05;;;;;;;;;;5099993;28;20019;-73
2022/01/03 12:48:18;;;;;;;8.05;1.80;;;;;;;;;;5100487;28;20013;-73
2022/01/03 12:50:53;;;;;;;9.05;1.38;;;;;;;;;;5100355;28;20134;-73
2022/01/03 12:53:18;;;;;;;8.25;1.30;;;;;;;;;;5100681;28;20020;-73
2022/01/03 12:55:48;;;;;;;6.75;1.60;;;;;;;;;;5100834;28;20068;-73
2022/01/03 12:58:13;;;;;;;6.65;1.50;;;;;;;;;;5100611;28;20020;-73
2022/01/03 13:00:40;;;;;;;11.50;1.90;;;;;;;;;;5100563;28;20079;-73
2022/01/03 13:03:29;;;;;;;3.53;1.10;;;;;;;;;;5100371;28;20054;-72
2022/01/03 13:06:19;;;;;;;6.03;1.60;;;;;;;;;;5100304;28;20012;-72
2022/01/03 13:08:47;;;;;;;9.50;1.70;;;;;;;;;;5100414;28;20009;-72
2022/01/03 13:11:18;;;;;;;4.68;1.38;;;;;;;;;;5099725;28;20009;-73
2022/01/03 13:13:46;;;;;;;5.18;1.20;;;;;;;;;;5100549;28;20007;-72
2022/01/03 13:16:19;;;;;;;9.05;1.50;;;;;;;;;;5100345;28;20016;-73
2022/01/03 13:18:48;;;;;;;10.15;1.33;;;;;;;;;;5100265;28;20028;-73
2022/01/03 13:21:15;;;;;;;9.85;1.85;;;;;;;;;;5099500;28;20013;-73
2022/01/03 13:23:56;;;;;;;10.13;1.95;;;;;;;;;;5099883;28;20038;-72
2022/01/03 13:26:23;;;;;;;8.25;1.45;;;;;;;;;;5099933;28;20126;-72
2022/01/03 13:28:51;;;;;;;9.85;1.58;;;;;;;;;;5099299;28;20080;-72
2022/01/03 13:31:17;;;;;;;8.35;1.50;;;;;;;;;;5099450;28;20019;-72
2022/01/03 13:33:43;;;;;;;5.22;1.35;;;;;;;;;;5099900;28;20013;-73
2022/01/03 13:36:12;;;;;;;12.70;2.03;;;;;;;;;;5099716;28;20008;-73
2022/01/03 13:38:37;;;;;;;5.15;1.75;;;;;;;;;;5099420;28;20024;-72
2022/01/03 13:41:16;;;;;;;7.65;1.50;;;;;;;;;;5099862;28;20039;-73
2022/01/03 13:43:56;;;;;;;9.00;1.75;;;;;;;;;;5099672;28;20032;-72
2022/01/03 13:49:22;;;;;;;9.13;1.48;;;;;;;;;;5099543;28;20020;-72
2022/01/03 13:51:54;;;;;;;6.70;1.63;;;;;;;;;;5098628;28;20038;-73
2022/01/03 13:54:24;;;;;;;9.98;1.55;;;;;;;;;;5099243;28;20012;-72
2022/01/03 13:56:50;;;;;;;9.35;1.67;;;;;;;;;;5099264;28;20020;-72
2022/01/03 13:59:16;;;;;;;11.40;2.88;;;;;;;;;;5098621;28;20024;-72
2022/01/03 14:01:41;;;;;;;7.20;1.65;;;;;;;;;;5098968;28;20032;-72
2022/01/03 14:04:07;;;;;;;10.75;1.42;;;;;;;;;;5099093;28;20017;-72
2022/01/03 14:06:32;;;;;;;15.32;1.75;;;;;;;;;;5098855;28;20020;-72
2022/01/03 14:09:07;;;;;;;8.02;1.67;;;;;;;;;;5099238;28;20032;-72
2022/01/03 14:11:33;;;;;;;6.25;1.88;;;;;;;;;;5099184;28;20027;-72
2022/01/03 14:14:17;;;;;;;11.65;2.33;;;;;;;;;;5098577;28;20040;-72
2022/01/03 14:16:54;;;;;;;7.88;1.55;;;;;;;;;;5098810;28;20020;-72
2022/01/03 14:19:19;;;;;;;11.75;1.65;;;;;;;;;;5098553;28;20050;-72
2022/01/03 14:21:47;;;;;;;5.78;1.50;;;;;;;;;;5098691;28;20180;-72
2022/01/03 14:24:12;;;;;;;4.28;1.48;;;;;;;;;;5098508;28;20036;-72
2022/01/03 14:26:39;;;;;;;7.47;2.20;;;;;;;;;;5098750;28;20031;-72
2022/01/03 14:29:08;;;;;;;5.72;1.48;;;;;;;;;;5098947;28;20016;-72
2022/01/03 14:31:43;;;;;;;6.28;1.45;;;;;;;;;;5098679;28;20031;-72
2022/01/03 14:34:08;;;;;;;5.65;1.50;;;;;;;;;;5098908;28;20016;-72
2022/01/03 14:36:39;;;;;;;9.13;1.73;;;;;;;;;;5098498;28;20017;-73
2022/01/03 14:39:06;;;;;;;4.30;1.80;;;;;;;;;;5098477;28;20017;-72
2022/01/03 14:41:31;;;;;;;9.32;1.70;;;;;;;;;;5098767;28;20043;-72
2022/01/03 14:43:59;;;;;;;9.18;2.05;;;;;;;;;;5098744;28;20017;-72
2022/01/03 14:46:44;;;;;;;11.93;2.03;;;;;;;;;;5098117;28;20020;-72
2022/01/03 14:49:18;;;;;;;11.25;1.95;;;;;;;;;;5097807;28;20309;-72
2022/01/03 14:51:47;;;;;;;8.00;1.60;;;;;;;;;;5098395;28;20027;-72
2022/01/03 14:54:23;;;;;;;22.92;12.57;;;;;;;;;;5098158;28;20016;-72
2022/01/03 14:56:52;;;;;;;14.35;3.42;;;;;;;;;;5098136;28;20009;-72
2022/01/03 14:59:20;;;;;;;10.95;3.40;;;;;;;;;;5098135;28;20020;-72
2022/01/03 15:01:50;;;;;;;5.93;2.35;;;;;;;;;;5097792;28;20020;-72
2022/01/03 15:04:18;;;;;;;6.25;2.20;;;;;;;;;;5098601;28;20039;-72
2022/01/03 15:06:44;;;;;;;9.88;5.90;;;;;;;;;;5098458;28;20048;-72
2022/01/03 15:09:10;;;;;;;10.93;3.75;;;;;;;;;;5098203;28;20085;-72
2022/01/03 15:11:37;;;;;;;8.52;5.30;;;;;;;;;;5097357;28;20023;-72